sensor_id;sensor_type;location;lat;lon;timestamp;pressure;altitude;pressure_sealevel;temperature;humidity
15405;BME280;7801;48.124;11.590;2022-07-24T00:01:13;95808.69;;;22.51;78.33
15405;BME280;7801;48.124;11.590;2022-07-24T00:03:39;95810.47;;;22.44;78.41
15405;BME280;7801;48.124;11.590;2022-07-24T00:06:06;95810.88;;;22.46;78.13
15405;BME280;7801;48.124;11.590;2022-07-24T00:08:46;95810.59;;;22.51;78.03
15405;BME280;7801;48.124;11.590;2022-07-24T00:11:13;95810.47;;;22.44;78.11
15405;BME280;7801;48.124;11.590;2022-07-24T00:13:39;95819.50;;;22.51;77.91
15405;BME280;7801;48.124;11.590;2022-07-24T00:16:13;95804.34;;;22.47;77.87
15405;BME280;7801;48.124;11.590;2022-07-24T00:18:39;95812.53;;;22.50;78.09
15405;BME280;7801;48.124;11.590;2022-07-24T00:21:15;95808.03;;;22.58;77.70
15405;BME280;7801;48.124;11.590;2022-07-24T00:23:59;95800.28;;;22.56;77.80
15405;BME280;7801;48.124;11.590;2022-07-24T00:26:24;95807.09;;;22.50;78.23
15405;BME280;7801;48.124;11.590;2022-07-24T00:28:50;95815.66;;;22.52;77.99
15405;BME280;7801;48.124;11.590;2022-07-24T00:31:17;95805.25;;;22.54;78.10
15405;BME280;7801;48.124;11.590;2022-07-24T00:33:46;95805.69;;;22.56;77.99
15405;BME280;7801;48.124;11.590;2022-07-24T00:36:14;95796.44;;;22.57;78.09
15405;BME280;7801;48.124;11.590;2022-07-24T00:38:40;95789.47;;;22.56;77.90
15405;BME280;7801;48.124;11.590;2022-07-24T00:41:13;95794.88;;;22.56;78.01
15405;BME280;7801;48.124;11.590;2022-07-24T00:44:01;95795.94;;;22.52;78.46
15405;BME280;7801;48.124;11.590;2022-07-24T00:46:28;95803.28;;;22.51;78.02
15405;BME280;7801;48.124;11.590;2022-07-24T00:48:55;95807.59;;;22.56;77.77
15405;BME280;7801;48.124;11.590;2022-07-24T00:51:22;95803.19;;;22.48;78.41
15405;BME280;7801;48.124;11.590;2022-07-24T00:53:48;95797.59;;;22.37;78.70
15405;BME280;7801;48.124;11.590;2022-07-24T00:56:15;95797.00;;;22.47;78.26
15405;BME280;7801;48.124;11.590;2022-07-24T00:58:42;95807.09;;;22.50;77.96
15405;BME280;7801;48.124;11.590;2022-07-24T01:01:15;95804.91;;;22.56;77.74
15405;BME280;7801;48.124;11.590;2022-07-24T01:03:42;95805.47;;;22.46;78.24
15405;BME280;7801;48.124;11.590;2022-07-24T01:06:19;95807.03;;;22.47;78.38
15405;BME280;7801;48.124;11.590;2022-07-24T01:08:46;95810.25;;;22.52;78.07
15405;BME280;7801;48.124;11.590;2022-07-24T01:11:12;95805.28;;;22.35;78.74
15405;BME280;7801;48.124;11.590;2022-07-24T01:13:40;95809.13;;;22.34;78.78
15405;BME280;7801;48.124;11.590;2022-07-24T01:16:12;95803.63;;;22.31;78.65
15405;BME280;7801;48.124;11.590;2022-07-24T01:18:37;95800.50;;;22.28;78.59
15405;BME280;7801;48.124;11.590;2022-07-24T01:21:14;95798.31;;;22.34;78.35
15405;BME280;7801;48.124;11.590;2022-07-24T01:23:39;95800.50;;;22.28;78.68
15405;BME280;7801;48.124;11.590;2022-07-24T01:26:14;95803.13;;;22.25;78.76
15405;BME280;7801;48.124;11.590;2022-07-24T01:28:40;95805.62;;;22.14;79.15
15405;BME280;7801;48.124;11.590;2022-07-24T01:31:13;95795.38;;;22.04;79.58
15405;BME280;7801;48.124;11.590;2022-07-24T01:33:38;95802.94;;;22.14;79.35
15405;BME280;7801;48.124;11.590;2022-07-24T01:36:24;95802.50;;;22.12;79.53
15405;BME280;7801;48.124;11.590;2022-07-24T01:38:52;95801.63;;;22.08;79.84
15405;BME280;7801;48.124;11.590;2022-07-24T01:41:19;95799.38;;;22.10;79.88
15405;BME280;7801;48.124;11.590;2022-07-24T01:43:44;95795.59;;;22.15;79.86
15405;BME280;7801;48.124;11.590;2022-07-24T01:46:13;95798.38;;;22.18;79.38
15405;BME280;7801;48.124;11.590;2022-07-24T01:48:42;95792.31;;;22.25;78.99
15405;BME280;7801;48.124;11.590;2022-07-24T01:51:14;95790.75;;;22.24;79.10
15405;BME280;7801;48.124;11.590;2022-07-24T01:53:39;95788.06;;;22.24;79.18
15405;BME280;7801;48.124;11.590;2022-07-24T01:56:13;95792.69;;;22.23;79.18
15405;BME280;7801;48.124;11.590;2022-07-24T01:58:43;95781.50;;;22.25;78.81
15405;BME280;7801;48.124;11.590;2022-07-24T02:01:19;95781.94;;;22.27;78.98
15405;BME280;7801;48.124;11.590;2022-07-24T02:03:46;95775.75;;;22.26;78.72
15405;BME280;7801;48.124;11.590;2022-07-24T02:06:15;95782.00;;;22.31;78.83
15405;BME280;7801;48.124;11.590;2022-07-24T02:08:41;95787.34;;;22.27;78.87
15405;BME280;7801;48.124;11.590;2022-07-24T02:11:12;95787.34;;;22.27;79.21
15405;BME280;7801;48.124;11.590;2022-07-24T02:13:38;95781.03;;;22.19;79.15
15405;BME280;7801;48.124;11.590;2022-07-24T02:16:12;95779.47;;;22.18;79.18
15405;BME280;7801;48.124;11.590;2022-07-24T02:18:38;95785.56;;;22.15;79.55
15405;BME280;7801;48.124;11.590;2022-07-24T02:21:15;95784.09;;;22.18;79.79
15405;BME280;7801;48.124;11.590;2022-07-24T02:23:42;95780.44;;;22.10;80.09
15405;BME280;7801;48.124;11.590;2022-07-24T02:26:14;95776.59;;;22.11;79.91
15405;BME280;7801;48.124;11.590;2022-07-24T02:28:39;95773.25;;;21.99;80.26
15405;BME280;7801;48.124;11.590;2022-07-24T02:31:04;95778.22;;;21.97;80.05
15405;BME280;7801;48.124;11.590;2022-07-24T02:33:31;95770.66;;;22.02;79.49
15405;BME280;7801;48.124;11.590;2022-07-24T02:35:57;95771.84;;;22.05;79.15
15405;BME280;7801;48.124;11.590;2022-07-24T02:38:23;95777.50;;;22.00;79.51
15405;BME280;7801;48.124;11.590;2022-07-24T02:40:49;95769.09;;;22.01;79.66
15405;BME280;7801;48.124;11.590;2022-07-24T02:43:15;95769.88;;;22.02;79.73
15405;BME280;7801;48.124;11.590;2022-07-24T02:45:40;95776.09;;;22.06;79.17
15405;BME280;7801;48.124;11.590;2022-07-24T02:48:06;95775.31;;;22.05;79.22
15405;BME280;7801;48.124;11.590;2022-07-24T02:50:34;95778.22;;;21.97;79.32
15405;BME280;7801;48.124;11.590;2022-07-24T02:53:05;95779.63;;;21.90;79.79
15405;BME280;7801;48.124;11.590;2022-07-24T02:55:30;95786.25;;;21.93;79.60
15405;BME280;7801;48.124;11.590;2022-07-24T02:57:56;95784.41;;;21.97;79.60
15405;BME280;7801;48.124;11.590;2022-07-24T03:00:22;95786.59;;;21.91;80.05
15405;BME280;7801;48.124;11.590;2022-07-24T03:02:48;95785.91;;;21.94;80.07
15405;BME280;7801;48.124;11.590;2022-07-24T03:05:15;95788.41;;;22.03;79.79
15405;BME280;7801;48.124;11.590;2022-07-24T03:07:41;95788.44;;;21.87;80.86
15405;BME280;7801;48.124;11.590;2022-07-24T03:10:08;95788.78;;;21.86;81.05
15405;BME280;7801;48.124;11.590;2022-07-24T03:12:34;95777.28;;;21.89;80.86
15405;BME280;7801;48.124;11.590;2022-07-24T03:14:59;95777.91;;;21.82;81.22
15405;BME280;7801;48.124;11.590;2022-07-24T03:17:26;95779.91;;;21.85;81.03
15405;BME280;7801;48.124;11.590;2022-07-24T03:19:54;95777.63;;;21.87;80.70
15405;BME280;7801;48.124;11.590;2022-07-24T03:22:27;95778.63;;;21.79;81.04
15405;BME280;7801;48.124;11.590;2022-07-24T03:24:52;95780.03;;;21.73;81.76
15405;BME280;7801;48.124;11.590;2022-07-24T03:27:19;95781.19;;;21.72;81.89
15405;BME280;7801;48.124;11.590;2022-07-24T03:29:46;95778.13;;;21.74;81.74
15405;BME280;7801;48.124;11.590;2022-07-24T03:32:13;95775.97;;;21.64;81.95
15405;BME280;7801;48.124;11.590;2022-07-24T03:34:41;95776.31;;;21.62;82.18
15405;BME280;7801;48.124;11.590;2022-07-24T03:37:06;95772.06;;;21.61;82.44
15405;BME280;7801;48.124;11.590;2022-07-24T03:39:34;95780.66;;;21.67;82.54
15405;BME280;7801;48.124;11.590;2022-07-24T03:42:01;95784.09;;;21.48;83.75
15405;BME280;7801;48.124;11.590;2022-07-24T03:44:28;95786.22;;;21.39;84.47
15405;BME280;7801;48.124;11.590;2022-07-24T03:46:54;95778.53;;;21.41;84.41
15405;BME280;7801;48.124;11.590;2022-07-24T03:49:19;95777.06;;;21.43;84.33
15405;BME280;7801;48.124;11.590;2022-07-24T03:51:45;95782.09;;;21.45;84.32
15405;BME280;7801;48.124;11.590;2022-07-24T03:54:12;95780.19;;;21.45;84.20
15405;BME280;7801;48.124;11.590;2022-07-24T03:56:38;95784.72;;;21.41;84.37
15405;BME280;7801;48.124;11.590;2022-07-24T03:59:04;95787.50;;;21.45;84.13
15405;BME280;7801;48.124;11.590;2022-07-24T04:01:31;95779.69;;;21.40;84.19
15405;BME280;7801;48.124;11.590;2022-07-24T04:04:02;95787.50;;;21.45;84.13
15405;BME280;7801;48.124;11.590;2022-07-24T04:06:31;95792.56;;;21.46;84.00
15405;BME280;7801;48.124;11.590;2022-07-24T04:08:59;95798.31;;;21.45;84.14
15405;BME280;7801;48.124;11.590;2022-07-24T04:11:26;95797.88;;;21.43;84.42
15405;BME280;7801;48.124;11.590;2022-07-24T04:13:52;95793.00;;;21.33;84.86
15405;BME280;7801;48.124;11.590;2022-07-24T04:16:22;95798.84;;;21.35;84.83
15405;BME280;7801;48.124;11.590;2022-07-24T04:18:48;95804.00;;;21.40;84.52
15405;BME280;7801;48.124;11.590;2022-07-24T04:21:13;95806.75;;;21.43;84.30
15405;BME280;7801;48.124;11.590;2022-07-24T04:23:41;95805.47;;;21.37;84.64
15405;BME280;7801;48.124;11.590;2022-07-24T04:26:18;95807.81;;;21.23;85.62
15405;BME280;7801;48.124;11.590;2022-07-24T04:28:45;95807.63;;;21.16;86.07
15405;BME280;7801;48.124;11.590;2022-07-24T04:31:15;95809.28;;;21.05;86.82
15405;BME280;7801;48.124;11.590;2022-07-24T04:33:41;95817.03;;;21.06;86.92
15405;BME280;7801;48.124;11.590;2022-07-24T04:36:16;95813.19;;;21.07;86.93
15405;BME280;7801;48.124;11.590;2022-07-24T04:38:41;95804.84;;;21.12;86.77
15405;BME280;7801;48.124;11.590;2022-07-24T04:41:14;95817.63;;;21.15;86.79
15405;BME280;7801;48.124;11.590;2022-07-24T04:43:43;95814.94;;;21.15;86.75
15405;BME280;7801;48.124;11.590;2022-07-24T04:46:19;95818.59;;;21.07;87.06
15405;BME280;7801;48.124;11.590;2022-07-24T04:48:44;95813.72;;;21.13;86.95
15405;BME280;7801;48.124;11.590;2022-07-24T04:51:11;95813.66;;;21.25;86.41
15405;BME280;7801;48.124;11.590;2022-07-24T04:53:36;95815.72;;;21.16;86.99
15405;BME280;7801;48.124;11.590;2022-07-24T04:56:02;95821.63;;;21.06;87.32
15405;BME280;7801;48.124;11.590;2022-07-24T04:58:27;95816.31;;;21.09;87.12
15405;BME280;7801;48.124;11.590;2022-07-24T05:00:55;95822.34;;;21.18;86.89
15405;BME280;7801;48.124;11.590;2022-07-24T05:03:21;95826.19;;;21.17;87.21
15405;BME280;7801;48.124;11.590;2022-07-24T05:05:47;95827.06;;;21.21;86.85
15405;BME280;7801;48.124;11.590;2022-07-24T05:08:14;95830.72;;;21.29;86.53
15405;BME280;7801;48.124;11.590;2022-07-24T05:10:41;95834.47;;;21.24;86.81
15405;BME280;7801;48.124;11.590;2022-07-24T05:13:08;95834.81;;;21.39;86.01
15405;BME280;7801;48.124;11.590;2022-07-24T05:15:34;95829.41;;;21.39;86.10
15405;BME280;7801;48.124;11.590;2022-07-24T05:18:02;95837.56;;;21.42;85.91
15405;BME280;7801;48.124;11.590;2022-07-24T05:20:27;95841.94;;;21.47;86.00
15405;BME280;7801;48.124;11.590;2022-07-24T05:22:53;95837.41;;;21.51;85.77
15405;BME280;7801;48.124;11.590;2022-07-24T05:25:20;95839.66;;;21.49;85.93
15405;BME280;7801;48.124;11.590;2022-07-24T05:27:45;95842.56;;;21.40;86.33
15405;BME280;7801;48.124;11.590;2022-07-24T05:30:11;95835.75;;;21.46;86.30
15405;BME280;7801;48.124;11.590;2022-07-24T05:32:37;95836.53;;;21.47;86.39
15405;BME280;7801;48.124;11.590;2022-07-24T05:35:05;95838.44;;;21.46;86.21
15405;BME280;7801;48.124;11.590;2022-07-24T05:37:31;95836.28;;;21.52;86.19
15405;BME280;7801;48.124;11.590;2022-07-24T05:39:57;95839.75;;;21.52;86.00
15405;BME280;7801;48.124;11.590;2022-07-24T05:42:24;95836.00;;;21.57;85.64
15405;BME280;7801;48.124;11.590;2022-07-24T05:44:49;95842.28;;;21.61;85.58
15405;BME280;7801;48.124;11.590;2022-07-24T05:47:16;95843.59;;;21.51;86.04
15405;BME280;7801;48.124;11.590;2022-07-24T05:49:42;95841.69;;;21.52;85.87
15405;BME280;7801;48.124;11.590;2022-07-24T05:52:11;95836.72;;;21.54;85.99
15405;BME280;7801;48.124;11.590;2022-07-24T05:54:37;95844.59;;;21.62;85.78
15405;BME280;7801;48.124;11.590;2022-07-24T05:57:02;95847.50;;;21.54;86.04
15405;BME280;7801;48.124;11.590;2022-07-24T05:59:29;95848.69;;;21.72;85.11
15405;BME280;7801;48.124;11.590;2022-07-24T06:01:57;95844.16;;;21.76;85.15
15405;BME280;7801;48.124;11.590;2022-07-24T06:04:26;95838.41;;;21.78;85.22
15405;BME280;7801;48.124;11.590;2022-07-24T06:06:51;95840.47;;;21.84;83.90
15405;BME280;7801;48.124;11.590;2022-07-24T06:09:16;95832.44;;;21.88;83.46
15405;BME280;7801;48.124;11.590;2022-07-24T06:11:43;95836.62;;;21.85;83.59
15405;BME280;7801;48.124;11.590;2022-07-24T06:14:09;95836.19;;;21.83;84.04
15405;BME280;7801;48.124;11.590;2022-07-24T06:16:35;95836.59;;;21.82;83.88
15405;BME280;7801;48.124;11.590;2022-07-24T06:19:01;95826.69;;;21.89;83.78
15405;BME280;7801;48.124;11.590;2022-07-24T06:21:27;95835.41;;;21.99;83.84
15405;BME280;7801;48.124;11.590;2022-07-24T06:23:52;95832.59;;;22.11;83.43
15405;BME280;7801;48.124;11.590;2022-07-24T06:26:17;95832.81;;;22.21;83.74
15405;BME280;7801;48.124;11.590;2022-07-24T06:28:44;95832.81;;;22.21;82.85
15405;BME280;7801;48.124;11.590;2022-07-24T06:31:15;95831.47;;;22.31;81.84
15405;BME280;7801;48.124;11.590;2022-07-24T06:33:42;95827.41;;;22.41;80.40
15405;BME280;7801;48.124;11.590;2022-07-24T06:36:15;95824.19;;;22.54;81.22
15405;BME280;7801;48.124;11.590;2022-07-24T06:38:42;95834.50;;;22.68;82.12
15405;BME280;7801;48.124;11.590;2022-07-24T06:41:14;95833.09;;;22.55;77.78
15405;BME280;7801;48.124;11.590;2022-07-24T06:43:41;95834.44;;;22.65;77.20
15405;BME280;7801;48.124;11.590;2022-07-24T06:46:16;95827.66;;;22.74;75.88
15405;BME280;7801;48.124;11.590;2022-07-24T06:48:43;95829.75;;;22.81;76.35
15405;BME280;7801;48.124;11.590;2022-07-24T06:51:15;95833.00;;;22.90;77.57
15405;BME280;7801;48.124;11.590;2022-07-24T06:53:43;95831.13;;;22.94;78.31
15405;BME280;7801;48.124;11.590;2022-07-24T06:56:13;95827.50;;;23.06;74.90
15405;BME280;7801;48.124;11.590;2022-07-24T06:58:38;95833.91;;;23.20;73.67
15405;BME280;7801;48.124;11.590;2022-07-24T07:01:04;95828.62;;;23.27;73.64
15405;BME280;7801;48.124;11.590;2022-07-24T07:03:39;95829.38;;;23.28;73.73
15405;BME280;7801;48.124;11.590;2022-07-24T07:06:05;95830.16;;;23.28;75.52
15405;BME280;7801;48.124;11.590;2022-07-24T07:08:40;95832.94;;;23.32;74.76
15405;BME280;7801;48.124;11.590;2022-07-24T07:11:12;95834.31;;;23.45;72.76
15405;BME280;7801;48.124;11.590;2022-07-24T07:13:40;95829.56;;;23.39;73.62
15405;BME280;7801;48.124;11.590;2022-07-24T07:16:15;95830.91;;;23.48;73.55
15405;BME280;7801;48.124;11.590;2022-07-24T07:18:42;95833.97;;;23.47;73.51
15405;BME280;7801;48.124;11.590;2022-07-24T07:21:14;95837.47;;;23.51;73.73
15405;BME280;7801;48.124;11.590;2022-07-24T07:23:42;95833.34;;;23.57;72.50
15405;BME280;7801;48.124;11.590;2022-07-24T07:26:16;95837.06;;;23.72;71.37
15405;BME280;7801;48.124;11.590;2022-07-24T07:28:42;95841.81;;;23.78;69.99
15405;BME280;7801;48.124;11.590;2022-07-24T07:31:15;95835.78;;;23.88;68.54
15405;BME280;7801;48.124;11.590;2022-07-24T07:33:42;95831.69;;;24.02;65.89
15405;BME280;7801;48.124;11.590;2022-07-24T07:36:15;95839.44;;;24.03;66.18
15405;BME280;7801;48.124;11.590;2022-07-24T07:38:42;95843.06;;;24.11;65.84
15405;BME280;7801;48.124;11.590;2022-07-24T07:41:14;95836.19;;;24.20;65.82
15405;BME280;7801;48.124;11.590;2022-07-24T07:43:41;95829.97;;;24.20;64.50
15405;BME280;7801;48.124;11.590;2022-07-24T07:46:17;95830.84;;;24.24;65.43
15405;BME280;7801;48.124;11.590;2022-07-24T07:48:42;95830.16;;;24.30;64.32
15405;BME280;7801;48.124;11.590;2022-07-24T07:51:21;95828.97;;;24.28;64.48
15405;BME280;7801;48.124;11.590;2022-07-24T07:53:48;95828.75;;;24.44;63.93
15405;BME280;7801;48.124;11.590;2022-07-24T07:56:15;95834.28;;;24.54;61.09
15405;BME280;7801;48.124;11.590;2022-07-24T07:58:40;95833.59;;;24.61;61.52
15405;BME280;7801;48.124;11.590;2022-07-24T08:01:20;95838.56;;;24.55;60.86
15405;BME280;7801;48.124;11.590;2022-07-24T08:03:46;95833.38;;;24.73;59.41
15405;BME280;7801;48.124;11.590;2022-07-24T08:06:20;95831.41;;;24.74;59.28
15405;BME280;7801;48.124;11.590;2022-07-24T08:08:48;95839.97;;;24.76;59.20
15405;BME280;7801;48.124;11.590;2022-07-24T08:11:17;95843.81;;;24.75;59.89
15405;BME280;7801;48.124;11.590;2022-07-24T08:13:42;95838.87;;;24.84;59.48
15405;BME280;7801;48.124;11.590;2022-07-24T08:16:15;95829.59;;;24.85;60.14
15405;BME280;7801;48.124;11.590;2022-07-24T08:18:45;95839.25;;;24.82;60.32
15405;BME280;7801;48.124;11.590;2022-07-24T08:21:15;95830.41;;;24.89;59.08
15405;BME280;7801;48.124;11.590;2022-07-24T08:23:44;95832.72;;;24.87;60.22
15405;BME280;7801;48.124;11.590;2022-07-24T08:26:16;95832.75;;;24.90;60.84
15405;BME280;7801;48.124;11.590;2022-07-24T08:28:41;95832.47;;;24.99;58.23
15405;BME280;7801;48.124;11.590;2022-07-24T08:31:13;95834.38;;;24.95;58.40
15405;BME280;7801;48.124;11.590;2022-07-24T08:33:39;95822.41;;;24.99;58.15
15405;BME280;7801;48.124;11.590;2022-07-24T08:36:05;95829.44;;;25.04;57.81
15405;BME280;7801;48.124;11.590;2022-07-24T08:38:43;95831.81;;;25.09;57.55
15405;BME280;7801;48.124;11.590;2022-07-24T08:41:13;95834.22;;;25.21;56.81
15405;BME280;7801;48.124;11.590;2022-07-24T08:43:38;95826.91;;;25.25;57.34
15405;BME280;7801;48.124;11.590;2022-07-24T08:46:09;95825.75;;;25.26;58.74
15405;BME280;7801;48.124;11.590;2022-07-24T08:48:43;95831.25;;;25.33;57.33
15405;BME280;7801;48.124;11.590;2022-07-24T08:51:16;95824.34;;;25.47;56.03
15405;BME280;7801;48.124;11.590;2022-07-24T08:53:44;95827.06;;;25.47;56.28
15405;BME280;7801;48.124;11.590;2022-07-24T08:56:11;95821.19;;;25.41;56.36
15405;BME280;7801;48.124;11.590;2022-07-24T08:58:38;95823.63;;;25.50;55.67
15405;BME280;7801;48.124;11.590;2022-07-24T09:01:10;95826.63;;;25.41;55.72
15405;BME280;7801;48.124;11.590;2022-07-24T09:03:45;95823.91;;;25.41;55.91
15405;BME280;7801;48.124;11.590;2022-07-24T09:06:14;95825.91;;;25.48;56.00
15405;BME280;7801;48.124;11.590;2022-07-24T09:08:42;95819.78;;;25.58;55.37
15405;BME280;7801;48.124;11.590;2022-07-24T09:11:09;95825.63;;;25.60;55.72
15405;BME280;7801;48.124;11.590;2022-07-24T09:13:37;95818.28;;;25.64;55.98
15405;BME280;7801;48.124;11.590;2022-07-24T09:16:24;95822.97;;;25.67;55.63
15405;BME280;7801;48.124;11.590;2022-07-24T09:19:09;95823.63;;;25.53;56.83
15405;BME280;7801;48.124;11.590;2022-07-24T09:21:40;95814.66;;;25.46;56.49
15405;BME280;7801;48.124;11.590;2022-07-24T09:24:20;95810.78;;;25.47;56.29
15405;BME280;7801;48.124;11.590;2022-07-24T09:26:48;95813.44;;;25.40;56.62
15405;BME280;7801;48.124;11.590;2022-07-24T09:29:16;95805.31;;;25.43;56.82
15405;BME280;7801;48.124;11.590;2022-07-24T09:31:54;95815.87;;;25.52;56.58
15405;BME280;7801;48.124;11.590;2022-07-24T09:34:25;95810.59;;;25.73;55.69
15405;BME280;7801;48.124;11.590;2022-07-24T09:37:04;95808.31;;;25.82;55.56
15405;BME280;7801;48.124;11.590;2022-07-24T09:39:32;95811.50;;;25.91;55.36
15405;BME280;7801;48.124;11.590;2022-07-24T09:42:00;95818.53;;;26.03;55.11
15405;BME280;7801;48.124;11.590;2022-07-24T09:44:25;95810.00;;;26.08;54.58
15405;BME280;7801;48.124;11.590;2022-07-24T09:46:58;95810.78;;;26.05;54.51
15405;BME280;7801;48.124;11.590;2022-07-24T09:49:25;95810.00;;;26.05;55.21
15405;BME280;7801;48.124;11.590;2022-07-24T09:52:23;95803.03;;;26.07;54.42
15405;BME280;7801;48.124;11.590;2022-07-24T09:54:58;95814.34;;;26.16;53.20
15405;BME280;7801;48.124;11.590;2022-07-24T09:57:29;95801.84;;;26.05;54.33
15405;BME280;7801;48.124;11.590;2022-07-24T10:00:00;95798.34;;;26.08;54.08
15405;BME280;7801;48.124;11.590;2022-07-24T10:02:33;95795.00;;;26.32;53.60
15405;BME280;7801;48.124;11.590;2022-07-24T10:05:02;95800.50;;;26.50;53.09
15405;BME280;7801;48.124;11.590;2022-07-24T10:07:30;95793.91;;;26.54;51.93
15405;BME280;7801;48.124;11.590;2022-07-24T10:09:58;95793.16;;;26.57;52.08
15405;BME280;7801;48.124;11.590;2022-07-24T10:12:26;95792.34;;;26.60;51.70
15405;BME280;7801;48.124;11.590;2022-07-24T10:14:55;95784.97;;;26.61;51.69
15405;BME280;7801;48.124;11.590;2022-07-24T10:20:08;95788.53;;;26.79;51.15
15405;BME280;7801;48.124;11.590;2022-07-24T10:23:04;95786.97;;;26.85;51.12
15405;BME280;7801;48.124;11.590;2022-07-24T10:25:38;95791.28;;;26.93;50.99
15405;BME280;7801;48.124;11.590;2022-07-24T10:28:14;95784.31;;;26.99;50.89
15405;BME280;7801;48.124;11.590;2022-07-24T10:30:46;95783.12;;;26.97;50.38
15405;BME280;7801;48.124;11.590;2022-07-24T10:33:13;95785.09;;;27.00;50.47
15405;BME280;7801;48.124;11.590;2022-07-24T10:35:41;95779.63;;;27.00;50.37
15405;BME280;7801;48.124;11.590;2022-07-24T10:38:24;95784.69;;;26.98;50.48
15405;BME280;7801;48.124;11.590;2022-07-24T10:41:02;95779.25;;;26.98;50.60
15405;BME280;7801;48.124;11.590;2022-07-24T10:43:27;95776.09;;;26.89;51.39
15405;BME280;7801;48.124;11.590;2022-07-24T10:48:30;95767.12;;;26.88;50.63
15405;BME280;7801;48.124;11.590;2022-07-24T10:53:30;95767.91;;;26.89;49.80
15405;BME280;7801;48.124;11.590;2022-07-24T11:01:36;95770.22;;;26.73;50.26
15405;BME280;7801;48.124;11.590;2022-07-24T11:06:52;95764.41;;;26.85;49.50
15405;BME280;7801;48.124;11.590;2022-07-24T11:09:20;95769.88;;;26.92;50.31
15405;BME280;7801;48.124;11.590;2022-07-24T11:20:06;95754.34;;;26.96;49.06
15405;BME280;7801;48.124;11.590;2022-07-24T11:22:43;95759.72;;;26.82;49.82
15405;BME280;7801;48.124;11.590;2022-07-24T11:25:20;95748.81;;;26.67;50.85
15405;BME280;7801;48.124;11.590;2022-07-24T11:28:14;95750.78;;;26.60;51.50
15405;BME280;7801;48.124;11.590;2022-07-24T11:30:45;95750.34;;;26.61;50.24
15405;BME280;7801;48.124;11.590;2022-07-24T11:33:20;95741.84;;;26.74;49.76
15405;BME280;7801;48.124;11.590;2022-07-24T11:35:48;95745.72;;;26.87;48.97
15405;BME280;7801;48.124;11.590;2022-07-24T11:38:14;95743.44;;;26.96;48.74
15405;BME280;7801;48.124;11.590;2022-07-24T11:40:39;95741.88;;;27.02;48.58
15405;BME280;7801;48.124;11.590;2022-07-24T11:43:07;95743.44;;;26.96;49.10
15405;BME280;7801;48.124;11.590;2022-07-24T11:45:34;95737.16;;;26.88;48.59
15405;BME280;7801;48.124;11.590;2022-07-24T11:48:01;95736.78;;;26.79;49.32
15405;BME280;7801;48.124;11.590;2022-07-24T11:50:28;95733.34;;;27.00;48.41
15405;BME280;7801;48.124;11.590;2022-07-24T11:52:55;95730.59;;;27.21;47.86
15405;BME280;7801;48.124;11.590;2022-07-24T11:55:22;95734.84;;;27.26;47.60
15405;BME280;7801;48.124;11.590;2022-07-24T11:57:51;95732.13;;;27.36;47.14
15405;BME280;7801;48.124;11.590;2022-07-24T12:00:21;95733.28;;;27.50;46.93
15405;BME280;7801;48.124;11.590;2022-07-24T12:02:56;95727.81;;;27.50;46.87
15405;BME280;7801;48.124;11.590;2022-07-24T12:05:48;95722.38;;;27.64;46.65
15405;BME280;7801;48.124;11.590;2022-07-24T12:08:17;95725.84;;;27.68;46.65
15405;BME280;7801;48.124;11.590;2022-07-24T12:10:45;95723.13;;;27.71;46.29
15405;BME280;7801;48.124;11.590;2022-07-24T12:13:14;95725.06;;;27.71;46.06
15405;BME280;7801;48.124;11.590;2022-07-24T12:15:40;95724.28;;;27.74;45.66
15405;BME280;7801;48.124;11.590;2022-07-24T12:18:08;95721.19;;;27.68;45.78
15405;BME280;7801;48.124;11.590;2022-07-24T12:20:43;95718.09;;;27.49;46.68
15405;BME280;7801;48.124;11.590;2022-07-24T12:23:11;95710.69;;;27.46;46.86
15405;BME280;7801;48.124;11.590;2022-07-24T12:25:39;95713.03;;;27.58;46.11
15405;BME280;7801;48.124;11.590;2022-07-24T12:28:09;95708.75;;;27.64;46.22
15405;BME280;7801;48.124;11.590;2022-07-24T12:30:40;95706.03;;;27.60;46.96
15405;BME280;7801;48.124;11.590;2022-07-24T12:33:27;95712.22;;;27.68;46.17
15405;BME280;7801;48.124;11.590;2022-07-24T12:38:32;95698.25;;;27.59;46.06
15405;BME280;7801;48.124;11.590;2022-07-24T12:41:18;95701.34;;;27.61;44.90
15405;BME280;7801;48.124;11.590;2022-07-24T12:44:03;95700.56;;;27.64;44.90
15405;BME280;7801;48.124;11.590;2022-07-24T12:46:38;95706.00;;;27.50;45.68
15405;BME280;7801;48.124;11.590;2022-07-24T12:49:13;95690.84;;;27.42;45.89
15405;BME280;7801;48.124;11.590;2022-07-24T12:52:19;95695.16;;;27.43;45.74
15405;BME280;7801;48.124;11.590;2022-07-24T12:54:37;95685.38;;;27.59;45.16
15405;BME280;7801;48.124;11.590;2022-07-24T12:57:12;95688.09;;;27.63;44.71
15405;BME280;7801;48.124;11.590;2022-07-24T12:59:40;95684.59;;;27.59;45.95
15405;BME280;7801;48.124;11.590;2022-07-24T13:02:11;95681.09;;;27.62;45.01
15405;BME280;7801;48.124;11.590;2022-07-24T13:04:42;95672.47;;;27.78;45.17
15405;BME280;7801;48.124;11.590;2022-07-24T13:07:08;95671.25;;;27.86;45.35
15405;BME280;7801;48.124;11.590;2022-07-24T13:09:36;95666.94;;;27.92;45.46
15405;BME280;7801;48.124;11.590;2022-07-24T13:12:04;95675.09;;;27.99;45.08
15405;BME280;7801;48.124;11.590;2022-07-24T13:14:29;95663.31;;;28.20;45.00
15405;BME280;7801;48.124;11.590;2022-07-24T13:17:11;95665.28;;;28.12;45.11
15405;BME280;7801;48.124;11.590;2022-07-24T13:19:49;95660.53;;;28.27;43.99
15405;BME280;7801;48.124;11.590;2022-07-24T13:22:15;95658.25;;;28.22;44.12
15405;BME280;7801;48.124;11.590;2022-07-24T13:24:41;95662.56;;;28.09;44.36
15405;BME280;7801;48.124;11.590;2022-07-24T13:27:09;95653.59;;;28.08;44.28
15405;BME280;7801;48.124;11.590;2022-07-24T13:29:36;95652.41;;;28.13;43.74
15405;BME280;7801;48.124;11.590;2022-07-24T13:32:03;95651.28;;;28.06;44.05
15405;BME280;7801;48.124;11.590;2022-07-24T13:34:29;95642.75;;;28.01;44.29
15405;BME280;7801;48.124;11.590;2022-07-24T13:36:56;95643.94;;;27.93;45.40
15405;BME280;7801;48.124;11.590;2022-07-24T13:39:24;95643.91;;;28.03;44.63